Time;durP1;ratioP1;P1;durP2;ratioP2;P2;SDS_P1;SDS_P2;PMS_P1;PMS_P2;Temp;Humidity;BMP_temperature;BMP_pressure;BME280_temperature;BME280_humidity;BME280_pressure;Samples;Min_cycle;Max_cycle;Signal;HPM_P1;HPM_P2
2022/06/04 00:00:18;;;;;;;2.85;1.45;;;;;;;15.74;52.42;101748.75;5043345;28;20036;-76
2022/06/04 00:02:45;;;;;;;4.30;1.52;;;;;;;15.69;54.01;101746.28;5048424;28;20032;-76
2022/06/04 00:05:13;;;;;;;2.90;1.60;;;;;;;15.66;52.61;101735.06;5045712;28;20035;-76
2022/06/04 00:07:38;;;;;;;4.15;1.58;;;;;;;15.63;52.87;101731.63;5048458;28;20033;-76
2022/06/04 00:15:45;;;;;;;3.15;1.42;;;;;;;15.51;53.76;101739.91;5051025;28;20039;-76
2022/06/04 00:18:11;;;;;;;4.70;1.50;;;;;;;15.52;52.98;101741.59;5048450;28;20029;-76
2022/06/04 00:20:36;;;;;;;2.20;1.40;;;;;;;15.48;52.78;101734.75;5048778;28;20032;-76
2022/06/04 00:23:04;;;;;;;4.35;1.70;;;;;;;15.47;53.79;101727.78;5046686;28;20150;-76
2022/06/04 00:25:30;;;;;;;2.53;1.48;;;;;;;15.45;54.19;101725.22;5052728;28;20137;-76
2022/06/04 00:27:57;;;;;;;3.85;1.50;;;;;;;15.43;52.12;101726.16;5051836;28;20036;-76
2022/06/04 00:30:23;;;;;;;2.10;1.33;;;;;;;15.42;53.58;101734.91;5047859;28;20047;-75
2022/06/04 00:32:48;;;;;;;2.35;1.40;;;;;;;15.39;52.98;101738.50;5051026;28;20021;-76
2022/06/04 00:35:14;;;;;;;2.38;1.63;;;;;;;15.39;55.36;101735.00;5049099;28;20056;-76
2022/06/04 00:37:40;;;;;;;2.42;1.63;;;;;;;15.35;52.47;101725.56;5048624;28;20459;-76
2022/06/04 00:40:08;;;;;;;4.57;1.60;;;;;;;15.33;54.71;101729.09;5047365;28;20020;-76
2022/06/04 00:42:34;;;;;;;4.10;1.90;;;;;;;15.28;52.54;101741.47;5047604;28;20107;-76
2022/06/04 00:45:21;;;;;;;1.98;1.27;;;;;;;15.28;52.63;101748.50;5049973;28;20120;-76
2022/06/04 00:47:47;;;;;;;2.72;1.50;;;;;;;15.24;52.44;101731.13;5047801;28;20021;-76
2022/06/04 00:50:18;;;;;;;4.05;1.45;;;;;;;15.22;53.93;101731.16;5045174;28;20035;-76
2022/06/04 00:52:46;;;;;;;4.15;1.58;;;;;;;15.21;53.41;101724.19;5046174;28;20406;-76
2022/06/04 00:55:12;;;;;;;2.28;1.63;;;;;;;15.23;54.09;101719.78;5043267;28;20028;-76
2022/06/04 00:58:02;;;;;;;2.83;1.50;;;;;;;15.19;53.86;101731.28;5045773;28;20045;-76
2022/06/04 01:00:40;;;;;;;3.25;1.80;;;;;;;15.15;52.49;101732.28;5018223;28;20078;-76
2022/06/04 01:03:11;;;;;;;2.22;1.40;;;;;;;15.14;54.59;101736.63;5052849;28;20033;-76
2022/06/04 01:05:59;;;;;;;3.15;1.90;;;;;;;15.14;53.09;101746.28;5052240;28;20415;-76
2022/06/04 01:08:51;;;;;;;4.53;1.65;;;;;;;15.13;52.84;101755.03;5053721;28;20075;-76
2022/06/04 01:12:11;;;;;;;3.08;1.60;;;;;;;15.10;53.09;101760.38;5045692;28;20029;-76
2022/06/04 01:15:09;;;;;;;2.47;1.42;;;;;;;15.07;53.95;101774.44;5033059;28;20041;-76
2022/06/04 01:17:37;;;;;;;1.55;1.40;;;;;;;15.03;53.89;101789.38;5035185;28;20112;-76
2022/06/04 01:20:24;;;;;;;2.95;1.52;;;;;;;15.00;53.01;101793.84;5048862;28;20033;-76
2022/06/04 01:23:30;;;;;;;3.30;1.50;;;;;;;14.97;52.98;101797.44;5044747;28;20036;-76
2022/06/04 01:26:25;;;;;;;4.13;1.90;;;;;;;14.96;53.73;101795.72;5045314;28;20518;-76
2022/06/04 01:28:56;;;;;;;4.47;2.05;;;;;;;14.92;54.94;101799.31;5045227;28;20021;-76
2022/06/04 01:31:32;;;;;;;2.10;1.45;;;;;;;14.92;54.05;101803.72;5046568;28;20074;-76
2022/06/04 01:34:02;;;;;;;2.40;1.88;;;;;;;14.90;54.07;101808.13;5044329;28;20108;-76
2022/06/04 01:36:39;;;;;;;2.83;1.75;;;;;;;14.87;54.31;101801.19;5045076;28;20052;-76
2022/06/04 01:39:12;;;;;;;2.92;1.85;;;;;;;14.84;53.33;101793.47;5046928;28;20039;-76
2022/06/04 01:41:42;;;;;;;2.97;1.90;;;;;;;14.82;53.58;101787.41;5049075;28;20025;-76
2022/06/04 01:44:13;;;;;;;3.45;1.80;;;;;;;14.79;53.84;101792.72;5047925;28;20044;-76
2022/06/04 01:46:45;;;;;;;4.18;2.00;;;;;;;14.78;53.51;101788.38;5049117;28;20052;-76
2022/06/04 01:49:17;;;;;;;3.42;1.92;;;;;;;14.75;53.60;101796.31;5046960;28;20032;-76
2022/06/04 01:51:46;;;;;;;2.50;1.83;;;;;;;14.71;54.28;101796.41;5046404;28;20059;-76
2022/06/04 01:54:20;;;;;;;3.42;1.80;;;;;;;14.70;54.04;101805.16;5043757;28;20047;-76
2022/06/04 01:56:51;;;;;;;2.95;1.90;;;;;;;14.68;54.09;101811.34;5044104;28;20028;-76
2022/06/04 01:59:31;;;;;;;2.60;1.65;;;;;;;14.67;53.90;101810.47;5045602;28;20120;-75
2022/06/04 02:02:01;;;;;;;3.05;1.98;;;;;;;14.64;54.15;101815.78;5047752;28;20033;-76
2022/06/04 02:04:31;;;;;;;2.83;1.90;;;;;;;14.61;54.63;101809.75;5047965;28;20055;-76
2022/06/04 02:07:30;;;;;;;3.28;2.08;;;;;;;14.60;54.37;101808.91;5045343;28;20036;-76
2022/06/04 02:10:09;;;;;;;2.70;1.90;;;;;;;14.56;54.40;101820.34;5047222;28;20029;-76
2022/06/04 02:12:36;;;;;;;2.75;1.80;;;;;;;14.54;54.53;101814.28;5044243;28;20400;-76
2022/06/04 02:15:07;;;;;;;5.18;2.15;;;;;;;14.55;55.87;101805.53;5045155;28;20039;-76
2022/06/04 02:17:35;;;;;;;4.50;1.80;;;;;;;14.51;56.53;101801.31;5040213;28;20111;-76
2022/06/04 02:20:00;;;;;;;2.40;1.63;;;;;;;14.50;56.22;101797.81;5044471;28;20033;-76
2022/06/04 02:22:26;;;;;;;3.38;2.00;;;;;;;14.46;55.13;101800.56;5041961;28;20074;-76
2022/06/04 02:24:51;;;;;;;4.93;2.15;;;;;;;14.44;55.41;101799.75;5045947;28;20060;-76
2022/06/04 02:27:16;;;;;;;3.08;1.90;;;;;;;14.41;55.95;101796.31;5048560;28;20047;-76
2022/06/04 02:29:42;;;;;;;2.40;1.88;;;;;;;14.40;55.70;101802.44;5047069;28;20031;-76
2022/06/04 02:32:33;;;;;;;4.57;2.13;;;;;;;14.39;55.38;101805.94;5045226;28;20043;-76
2022/06/04 02:35:27;;;;;;;4.07;1.90;;;;;;;14.37;55.22;101807.75;5046337;28;20472;-76
2022/06/04 02:37:56;;;;;;;3.47;2.10;;;;;;;14.36;55.52;101810.41;5039537;28;20527;-76
2022/06/04 02:40:45;;;;;;;3.88;1.80;;;;;;;14.34;57.16;101802.63;5043909;28;20048;-76
2022/06/04 02:43:22;;;;;;;3.80;2.10;;;;;;;14.35;55.77;101804.31;5045267;28;20056;-76
2022/06/04 02:45:56;;;;;;;7.25;2.42;;;;;;;14.33;56.11;101795.66;5049421;28;20139;-76
2022/06/04 02:48:30;;;;;;;3.17;2.40;;;;;;;14.29;55.95;101790.53;5046492;28;20136;-75
2022/06/04 02:51:05;;;;;;;6.10;2.20;;;;;;;14.29;56.82;101790.53;5045298;28;20033;-76
2022/06/04 02:53:33;;;;;;;3.97;2.45;;;;;;;14.25;56.34;101787.13;5045812;28;20961;-76
2022/06/04 02:56:09;;;;;;;4.15;2.30;;;;;;;14.22;56.38;101781.97;5047056;28;20024;-76
2022/06/04 02:58:35;;;;;;;2.97;2.28;;;;;;;14.20;57.47;101771.56;5044140;28;20037;-76
2022/06/04 03:01:03;;;;;;;3.25;2.38;;;;;;;14.18;57.33;101756.78;5046258;28;20064;-76
2022/06/04 03:03:29;;;;;;;4.28;2.45;;;;;;;14.18;57.19;101762.88;5044314;28;20526;-76
2022/06/04 03:05:57;;;;;;;5.30;2.42;;;;;;;14.17;56.89;101757.69;5045698;28;20029;-76
2022/06/04 03:08:25;;;;;;;4.18;2.65;;;;;;;14.14;57.11;101760.41;5050435;28;20484;-75
2022/06/04 03:10:51;;;;;;;4.68;2.70;;;;;;;14.08;57.46;101758.81;5050788;28;20060;-76
2022/06/04 03:13:17;;;;;;;4.43;2.50;;;;;;;14.06;59.01;101756.22;5048580;28;20064;-76
2022/06/04 03:15:42;;;;;;;4.03;2.53;;;;;;;14.05;59.73;101753.66;5045200;28;20109;-75
2022/06/04 03:18:07;;;;;;;4.57;3.00;;;;;;;14.03;58.17;101751.03;5048307;28;20123;-75
2022/06/04 03:20:33;;;;;;;6.07;2.70;;;;;;;14.02;58.96;101749.31;5049854;28;20410;-76
2022/06/04 03:22:58;;;;;;;3.90;2.92;;;;;;;14.01;59.08;101752.00;5045772;28;20029;-75
2022/06/04 03:25:24;;;;;;;7.32;2.88;;;;;;;13.98;59.22;101757.31;5050348;28;20045;-76
2022/06/04 03:27:49;;;;;;;5.82;3.20;;;;;;;13.96;58.79;101754.75;5050322;28;20503;-76
2022/06/04 03:30:16;;;;;;;3.83;3.00;;;;;;;13.96;59.77;101754.75;5051558;28;20040;-76
2022/06/04 03:32:42;;;;;;;6.85;3.30;;;;;;;13.93;58.59;101762.66;5047091;28;20179;-76
2022/06/04 03:35:07;;;;;;;4.55;3.22;;;;;;;13.93;59.49;101762.66;5047436;28;20029;-76
2022/06/04 03:37:34;;;;;;;6.50;3.05;;;;;;;13.92;59.42;101758.31;5048364;28;20032;-75
2022/06/04 03:40:00;;;;;;;5.03;3.25;;;;;;;13.93;61.22;101766.13;5050314;28;20074;-76
2022/06/04 03:42:25;;;;;;;6.40;3.42;;;;;;;13.94;59.77;101767.00;5051076;28;20534;-76
2022/06/04 03:44:51;;;;;;;4.10;2.90;;;;;;;13.89;59.24;101768.84;5051349;28;20666;-76
2022/06/04 03:47:17;;;;;;;4.63;2.83;;;;;;;13.88;60.61;101761.91;5049185;28;20033;-76
2022/06/04 03:49:44;;;;;;;4.53;3.38;;;;;;;13.84;59.52;101765.47;5047448;28;20025;-76
2022/06/04 03:52:11;;;;;;;5.90;3.20;;;;;;;13.87;60.56;101762.78;5048716;28;20399;-76
2022/06/04 03:54:52;;;;;;;4.57;3.58;;;;;;;13.81;59.88;101763.81;5043916;28;20032;-76
2022/06/04 04:00:12;;;;;;;7.35;3.10;;;;;;;13.83;61.04;101759.41;5053193;28;20094;-76
2022/06/04 04:02:39;;;;;;;5.43;3.33;;;;;;;13.79;61.35;101760.38;5050717;28;20376;-76
2022/06/04 04:05:07;;;;;;;6.47;3.38;;;;;;;13.75;60.39;101772.66;5048453;28;20044;-76
2022/06/04 04:07:33;;;;;;;5.75;3.22;;;;;;;13.72;60.74;101774.50;5048606;28;20464;-75
2022/06/04 04:09:59;;;;;;;6.35;3.35;;;;;;;13.71;60.97;101786.72;5048117;28;20194;-76
2022/06/04 04:12:24;;;;;;;6.82;3.38;;;;;;;13.71;61.25;101784.09;5047584;28;20144;-75
2022/06/04 04:14:49;;;;;;;6.38;3.40;;;;;;;13.69;60.90;101788.50;5046210;28;20122;-76
2022/06/04 04:17:15;;;;;;;7.93;4.05;;;;;;;13.67;60.93;101800.75;5046243;28;20383;-76
2022/06/04 04:19:40;;;;;;;5.65;3.83;;;;;;;13.68;61.28;101797.25;5050631;28;20027;-76
2022/06/04 04:22:06;;;;;;;5.82;4.03;;;;;;;13.68;61.05;101797.25;5048075;28;20496;-76
2022/06/04 04:24:31;;;;;;;6.38;3.33;;;;;;;13.67;61.24;101803.34;5046919;28;20045;-76
2022/06/04 04:26:56;;;;;;;6.88;3.80;;;;;;;13.67;61.78;101805.97;5052299;28;20455;-76
2022/06/04 04:29:22;;;;;;;8.07;4.07;;;;;;;13.66;60.95;101806.91;5051130;28;20522;-76
2022/06/04 04:31:47;;;;;;;5.78;4.00;;;;;;;13.67;61.90;101795.50;5044692;28;20025;-75
2022/06/04 04:34:13;;;;;;;6.50;3.60;;;;;;;13.68;62.97;101794.63;5046517;28;20071;-76
2022/06/04 04:36:38;;;;;;;7.43;3.80;;;;;;;13.68;61.47;101799.84;5044654;28;20111;-76
2022/06/04 04:39:04;;;;;;;6.88;3.60;;;;;;;13.68;61.81;101794.63;5044522;28;20515;-76
2022/06/04 04:41:29;;;;;;;7.03;3.92;;;;;;;13.67;62.56;101795.50;5049614;28;20079;-76
2022/06/04 04:43:55;;;;;;;7.53;4.00;;;;;;;13.65;62.58;101807.78;5049653;28;20059;-76
2022/06/04 04:46:20;;;;;;;6.88;4.15;;;;;;;13.65;62.04;101803.41;5044663;28;20079;-76
2022/06/04 04:48:48;;;;;;;5.30;3.63;;;;;;;13.68;63.62;101806.84;5046629;28;20040;-76
2022/06/04 04:51:16;;;;;;;7.95;3.80;;;;;;;13.68;63.09;101801.63;5045879;28;20546;-76
2022/06/04 04:53:43;;;;;;;6.25;3.70;;;;;;;13.67;62.81;101819.03;5045080;28;20037;-75
2022/06/04 04:56:08;;;;;;;6.88;3.75;;;;;;;13.69;62.78;101816.41;5045801;28;20060;-76
2022/06/04 04:58:34;;;;;;;5.28;3.40;;;;;;;13.70;64.04;101816.38;5051840;28;20106;-75
2022/06/04 05:00:59;;;;;;;5.50;3.63;;;;;;;13.67;62.75;101829.50;5057282;28;20025;-76
2022/06/04 05:03:24;;;;;;;7.57;4.38;;;;;;;13.68;62.28;101833.84;5048869;28;20518;-76
2022/06/04 05:05:59;;;;;;;7.80;4.53;;;;;;;13.68;62.03;101830.38;5048356;28;20039;-76
2022/06/04 05:08:25;;;;;;;7.13;4.07;;;;;;;13.68;62.83;101839.06;5046459;28;20017;-76
2022/06/04 05:10:50;;;;;;;6.88;4.35;;;;;;;13.67;62.84;101839.97;5049319;28;20094;-76
2022/06/04 05:13:15;;;;;;;6.53;4.20;;;;;;;13.69;62.81;101840.78;5042411;28;20021;-75
2022/06/04 05:15:41;;;;;;;5.50;3.70;;;;;;;13.70;63.22;101839.91;5042811;28;20037;-76
2022/06/04 05:18:06;;;;;;;6.93;4.15;;;;;;;13.72;63.63;101835.50;5048542;28;20033;-76
2022/06/04 05:20:32;;;;;;;10.45;4.45;;;;;;;13.73;63.29;101832.00;5046708;28;20021;-76
2022/06/04 05:22:57;;;;;;;6.90;4.40;;;;;;;13.74;63.25;101831.09;5054773;28;20055;-75
2022/06/04 05:25:22;;;;;;;5.93;3.90;;;;;;;13.75;63.54;101824.97;5047383;28;20044;-76
2022/06/04 05:27:47;;;;;;;9.57;4.88;;;;;;;13.76;62.84;101825.81;5045491;28;20401;-76
2022/06/04 05:30:13;;;;;;;6.40;4.05;;;;;;;13.77;63.80;101833.66;5045703;28;20028;-76
2022/06/04 05:32:39;;;;;;;7.88;4.72;;;;;;;13.79;63.06;101833.59;5042657;28;20021;-76
2022/06/04 05:35:04;;;;;;;9.30;4.78;;;;;;;13.79;63.21;101842.31;5042762;28;20029;-76
2022/06/04 05:37:30;;;;;;;9.27;4.43;;;;;;;13.80;63.50;101848.41;5039719;28;20017;-76
2022/06/04 05:39:56;;;;;;;9.63;4.70;;;;;;;13.83;62.95;101847.50;5043989;28;20082;-76
2022/06/04 05:42:21;;;;;;;6.38;4.60;;;;;;;13.85;62.99;101850.91;5046951;28;20040;-75
2022/06/04 05:44:47;;;;;;;8.43;4.40;;;;;;;13.87;63.47;101849.13;5041857;28;20047;-76
2022/06/04 05:47:12;;;;;;;6.07;4.20;;;;;;;13.91;63.79;101856.88;5054696;28;20041;-76
2022/06/04 05:49:38;;;;;;;6.65;4.63;;;;;;;13.93;63.29;101860.28;5055545;28;20035;-76
2022/06/04 05:52:03;;;;;;;8.30;4.68;;;;;;;13.94;63.11;101858.56;5058914;28;20426;-76
2022/06/04 05:54:28;;;;;;;7.20;4.70;;;;;;;13.95;63.36;101855.88;5052691;28;20132;-75
2022/06/04 05:56:54;;;;;;;8.88;4.82;;;;;;;13.99;63.52;101854.09;5055593;28;20511;-76
2022/06/04 05:59:22;;;;;;;7.90;4.43;;;;;;;14.01;63.59;101857.50;5056495;28;20371;-76
2022/06/04 06:01:48;;;;;;;8.00;4.63;;;;;;;14.00;63.25;101860.16;5056272;28;20037;-76
2022/06/04 06:04:15;;;;;;;6.50;4.18;;;;;;;13.99;62.75;101856.69;5054559;28;20032;-76
2022/06/04 06:06:43;;;;;;;6.43;4.65;;;;;;;13.99;63.39;101853.22;5057416;28;20506;-76
2022/06/04 06:09:10;;;;;;;6.90;4.35;;;;;;;13.98;62.86;101860.22;5056322;28;20047;-75
2022/06/04 06:11:37;;;;;;;6.57;4.70;;;;;;;14.00;63.38;101861.03;5053871;28;20472;-76
2022/06/04 06:14:03;;;;;;;10.80;4.97;;;;;;;14.01;62.81;101867.97;5055585;28;20031;-76
2022/06/04 06:16:31;;;;;;;6.93;4.22;;;;;;;14.04;63.48;101872.28;5053421;28;20036;-75
2022/06/04 06:18:58;;;;;;;7.45;4.65;;;;;;;14.02;62.83;101869.69;5051497;28;20107;-75
2022/06/04 06:21:26;;;;;;;8.05;5.03;;;;;;;14.02;62.81;101877.53;5057657;28;20100;-76
2022/06/04 06:23:53;;;;;;;7.30;4.22;;;;;;;14.05;63.09;101871.38;5057508;28;20549;-76
2022/06/04 06:26:23;;;;;;;6.05;4.70;;;;;;;14.10;63.28;101877.34;5058123;28;20028;-75
2022/06/04 06:28:49;;;;;;;7.25;5.00;;;;;;;14.12;63.50;101870.31;5052629;28;20033;-75
2022/06/04 06:31:19;;;;;;;6.75;4.88;;;;;;;14.14;62.85;101872.91;5053060;28;20028;-75
2022/06/04 06:33:44;;;;;;;9.07;4.57;;;;;;;14.16;63.46;101871.13;5056441;28;20123;-75
2022/06/04 06:36:15;;;;;;;9.00;5.15;;;;;;;14.18;63.02;101878.03;5058956;28;20190;-75
2022/06/04 06:38:40;;;;;;;8.27;5.13;;;;;;;14.22;63.22;101876.19;5052211;28;20440;-76
2022/06/04 06:41:07;;;;;;;6.55;4.60;;;;;;;14.22;62.77;101886.66;5052847;28;20028;-76
2022/06/04 06:43:39;;;;;;;7.60;5.00;;;;;;;14.23;62.60;101889.25;5053319;28;20094;-76
2022/06/04 06:46:05;;;;;;;;;;;;;;;14.29;61.41;101884.75;5052798;28;20105;-76
2022/06/04 06:48:31;;;;;;;8.25;4.90;;;;;;;14.29;62.71;101890.88;5057392;28;20275;-76
2022/06/04 06:50:56;;;;;;;8.15;5.30;;;;;;;14.25;62.41;101889.22;5051893;28;20039;-77
2022/06/04 06:53:22;;;;;;;10.02;5.10;;;;;;;14.28;62.77;101878.66;5052564;28;20119;-76
2022/06/04 06:55:47;;;;;;;7.65;5.22;;;;;;;14.32;63.07;101887.31;5053499;28;20041;-76
2022/06/04 06:58:12;;;;;;;7.72;5.28;;;;;;;14.36;62.44;101887.19;5053475;28;20036;-76
2022/06/04 07:00:38;;;;;;;9.07;5.03;;;;;;;14.39;62.47;101894.97;5056793;28;20387;-76
2022/06/04 07:03:04;;;;;;;8.40;5.65;;;;;;;14.40;62.41;101896.69;5054487;28;20493;-76
2022/06/04 07:05:29;;;;;;;9.27;5.53;;;;;;;14.41;62.04;101889.72;5053175;28;20428;-76
2022/06/04 07:07:54;;;;;;;8.38;5.80;;;;;;;14.42;62.59;101891.44;5052924;28;20067;-75
2022/06/04 07:10:19;;;;;;;7.75;5.68;;;;;;;14.48;62.43;101877.31;5053317;28;20065;-76
2022/06/04 07:12:45;;;;;;;9.60;5.72;;;;;;;14.52;62.37;101871.97;5054407;28;20048;-76
2022/06/04 07:15:11;;;;;;;9.05;5.85;;;;;;;14.57;62.23;101877.06;5051087;28;20035;-76
2022/06/04 07:17:37;;;;;;;8.50;5.47;;;;;;;14.60;62.58;101874.38;5049644;28;20029;-76
2022/06/04 07:20:02;;;;;;;9.45;5.60;;;;;;;14.63;62.10;101878.66;5053722;28;20375;-76
2022/06/04 07:22:27;;;;;;;7.93;5.78;;;;;;;14.67;62.29;101882.94;5048521;28;20032;-76
2022/06/04 07:24:55;;;;;;;9.43;6.03;;;;;;;14.72;61.89;101879.31;5052195;28;20056;-76
2022/06/04 07:27:21;;;;;;;9.10;5.05;;;;;;;14.75;61.70;101881.00;5050547;28;20031;-76
2022/06/04 07:29:46;;;;;;;8.90;5.57;;;;;;;14.78;61.85;101880.91;5046844;28;20036;-76
2022/06/04 07:32:11;;;;;;;7.78;4.75;;;;;;;14.85;62.14;101886.88;5053943;28;20064;-76
2022/06/04 07:34:37;;;;;;;6.90;5.20;;;;;;;14.87;61.04;101899.00;5046495;28;20112;-76
2022/06/04 07:37:02;;;;;;;10.40;5.35;;;;;;;14.92;62.19;101896.25;5049304;28;20697;-76
2022/06/04 07:39:28;;;;;;;8.23;5.63;;;;;;;14.97;61.56;101901.38;5050168;28;20033;-76
2022/06/04 07:41:54;;;;;;;9.75;5.20;;;;;;;15.03;61.70;101906.47;5055077;28;20369;-76
2022/06/04 07:44:22;;;;;;;8.68;5.30;;;;;;;15.08;61.18;101898.47;5047443;28;20055;-76
2022/06/04 07:46:49;;;;;;;8.13;5.22;;;;;;;15.13;61.26;101899.19;5051885;28;20161;-75
2022/06/04 07:49:15;;;;;;;8.07;5.30;;;;;;;15.20;61.38;101898.09;5052896;28;20029;-77
2022/06/04 07:51:42;;;;;;;8.13;5.45;;;;;;;15.26;60.79;101902.34;5049210;28;20380;-76
2022/06/04 07:54:08;;;;;;;8.18;5.15;;;;;;;15.30;61.05;101896.97;5051936;28;20025;-76
2022/06/04 07:56:34;;;;;;;8.27;5.72;;;;;;;15.36;60.74;101908.19;5051054;28;20506;-76
2022/06/04 07:59:00;;;;;;;10.43;6.00;;;;;;;15.40;59.98;101912.41;5060384;28;20051;-75
2022/06/04 08:01:25;;;;;;;8.77;5.38;;;;;;;15.43;60.36;101905.34;5052610;28;20045;-76
2022/06/04 08:03:53;;;;;;;8.30;5.55;;;;;;;15.46;60.08;101892.13;5060376;28;20119;-76
2022/06/04 08:06:19;;;;;;;7.22;5.40;;;;;;;15.53;59.49;101895.44;5056495;28;20035;-76
2022/06/04 08:08:47;;;;;;;7.38;5.35;;;;;;;15.56;60.15;101895.31;5054474;28;20025;-76
2022/06/04 08:11:31;;;;;;;8.75;5.70;;;;;;;15.60;60.18;101896.97;5052745;28;20032;-75
2022/06/04 08:14:08;;;;;;;8.50;5.47;;;;;;;15.66;59.83;101898.53;5057040;28;20078;-77
2022/06/04 08:16:39;;;;;;;7.15;5.10;;;;;;;15.73;60.34;101901.81;5052647;28;20116;-77
2022/06/04 08:19:06;;;;;;;8.35;5.30;;;;;;;15.79;59.53;101896.41;5053297;28;20117;-76
2022/06/04 08:21:34;;;;;;;7.78;5.70;;;;;;;15.86;59.82;101903.22;5055809;28;20107;-75
2022/06/04 08:23:59;;;;;;;8.75;5.53;;;;;;;15.93;59.52;101899.47;5056025;28;20025;-75
2022/06/04 08:26:25;;;;;;;7.60;5.22;;;;;;;15.99;59.72;101894.97;5057055;28;20028;-76
2022/06/04 08:28:50;;;;;;;8.65;5.00;;;;;;;16.04;58.83;101890.44;5051997;28;20028;-75
2022/06/04 08:31:16;;;;;;;7.82;5.22;;;;;;;16.10;59.47;101894.63;5050979;28;20074;-76
2022/06/04 08:33:42;;;;;;;8.10;5.07;;;;;;;16.18;59.72;101896.09;5051069;28;20192;-76
2022/06/04 08:36:11;;;;;;;8.00;5.38;;;;;;;16.23;59.34;101902.03;5059424;28;20387;-76
2022/06/04 08:38:37;;;;;;;6.97;5.55;;;;;;;16.31;59.09;101890.44;5056661;28;20179;-76
2022/06/04 08:41:05;;;;;;;7.93;5.00;;;;;;;16.36;58.77;101885.88;5055589;28;20511;-76
2022/06/04 08:43:58;;;;;;;8.00;5.03;;;;;;;16.43;58.84;101882.13;5054556;28;20047;-76
2022/06/04 08:47:01;;;;;;;8.15;5.22;;;;;;;16.50;58.75;101881.03;5054974;28;20051;-75
2022/06/04 08:49:35;;;;;;;6.93;5.10;;;;;;;16.53;58.82;101875.66;5052846;28;20043;-76
2022/06/04 08:52:10;;;;;;;9.07;5.53;;;;;;;16.57;57.95;101875.56;5052943;28;20657;-76
2022/06/04 08:57:36;;;;;;;6.68;4.82;;;;;;;16.58;57.90;101885.13;5050111;28;20066;-76
2022/06/04 09:00:10;;;;;;;8.05;5.35;;;;;;;16.59;58.07;101887.72;5050505;28;20040;-76
2022/06/04 09:02:52;;;;;;;13.00;5.85;;;;;;;16.66;58.25;101891.00;5051671;28;20046;-76
2022/06/04 09:05:32;;;;;;;8.77;5.43;;;;;;;16.72;58.56;101898.69;5057031;28;20040;-76
2022/06/04 09:08:04;;;;;;;7.63;5.15;;;;;;;16.76;57.73;101905.53;5052602;28;20017;-76
2022/06/04 09:10:41;;;;;;;8.18;5.35;;;;;;;16.83;57.67;101907.03;5060995;28;20047;-75
2022/06/04 09:13:31;;;;;;;9.27;5.60;;;;;;;16.91;57.59;101919.06;5059003;28;20028;-76
2022/06/04 09:16:11;;;;;;;10.52;6.25;;;;;;;16.96;57.00;101922.41;5062150;28;20028;-76
2022/06/04 09:18:37;;;;;;;8.93;5.35;;;;;;;17.02;57.28;101924.81;5052767;28;20477;-75
2022/06/04 09:21:05;;;;;;;7.43;5.18;;;;;;;17.08;56.80;101921.97;5057541;28;20039;-75
2022/06/04 09:23:33;;;;;;;9.90;5.45;;;;;;;17.21;57.39;101924.16;5059569;28;20028;-75
2022/06/04 09:26:14;;;;;;;8.48;6.10;;;;;;;17.33;57.29;101928.97;5059227;28;20048;-75
2022/06/04 09:29:11;;;;;;;8.60;6.13;;;;;;;17.44;56.67;101911.00;5054562;28;20055;-75
2022/06/04 09:31:55;;;;;;;7.80;5.72;;;;;;;17.53;57.11;101920.31;5057386;28;20463;-75
2022/06/04 09:34:27;;;;;;;9.40;5.55;;;;;;;17.55;56.36;101904.50;5061036;28;20065;-75
2022/06/04 09:36:53;;;;;;;7.18;5.32;;;;;;;17.55;55.80;101909.75;5061153;28;20057;-76
2022/06/04 09:39:19;;;;;;;10.20;5.60;;;;;;;17.54;56.12;101911.50;5059444;28;20154;-76
2022/06/04 09:41:51;;;;;;;8.05;5.75;;;;;;;17.55;55.51;101912.38;5058502;28;20044;-76
2022/06/04 09:44:16;;;;;;;;;;;;;;;17.60;56.34;101908.66;5059950;28;20028;-75
2022/06/04 09:46:44;;;;;;;8.80;5.50;;;;;;;17.60;56.01;101902.53;5055689;28;19921;-75
2022/06/04 09:49:30;;;;;;;8.77;5.90;;;;;;;17.65;56.28;101905.84;5052950;28;20043;-75
2022/06/04 09:51:56;;;;;;;9.88;5.85;;;;;;;17.70;55.63;101895.13;5061090;28;20490;-75
2022/06/04 09:54:34;;;;;;;8.90;5.88;;;;;;;17.79;56.20;101896.53;5058066;28;20036;-75
2022/06/04 09:57:03;;;;;;;7.07;5.50;;;;;;;17.86;55.47;101898.88;5058697;28;20025;-75
2022/06/04 09:59:32;;;;;;;10.57;6.55;;;;;;;17.93;56.12;101894.25;5055864;28;20040;-75
2022/06/04 10:02:09;;;;;;;8.27;6.25;;;;;;;18.01;55.58;101896.59;5059086;28;20112;-76
2022/06/04 10:04:47;;;;;;;8.48;6.05;;;;;;;18.11;56.13;101908.47;5057408;28;20041;-75
2022/06/04 10:07:29;;;;;;;8.55;6.15;;;;;;;18.25;56.56;101913.19;5060000;28;20108;-76
2022/06/04 10:09:56;;;;;;;7.68;6.05;;;;;;;18.35;55.59;101918.94;5059162;28;20028;-76
2022/06/04 10:13:42;;;;;;;9.30;6.32;;;;;;;18.43;54.61;101923.88;5061058;28;20059;-76
2022/06/04 10:15:30;;;;;;;7.78;5.70;;;;;;;18.51;54.95;101916.50;5055387;28;20040;-76
2022/06/04 10:18:18;;;;;;;8.40;6.15;;;;;;;18.60;55.40;101926.66;5056920;28;20643;-85
2022/06/04 10:20:53;;;;;;;9.35;5.93;;;;;;;18.65;54.52;101929.94;5059958;28;20034;-76
2022/06/04 10:23:18;;;;;;;8.77;6.07;;;;;;;18.69;54.34;101925.41;5057829;28;20052;-76
2022/06/04 10:25:55;;;;;;;7.18;5.88;;;;;;;18.73;54.92;101921.72;5057035;28;20512;-76
2022/06/04 10:28:33;;;;;;;8.13;5.82;;;;;;;18.76;54.08;101920.75;5057109;28;20081;-76
2022/06/04 10:31:07;;;;;;;6.15;4.95;;;;;;;18.82;55.38;101920.44;5055942;28;20036;-76
2022/06/04 10:34:21;;;;;;;9.00;5.90;;;;;;;18.87;54.86;101923.75;5059644;28;20032;-76
2022/06/04 10:37:22;;;;;;;8.10;5.72;;;;;;;18.91;54.91;101916.56;5045908;28;20098;-76
2022/06/04 10:40:32;;;;;;;7.65;5.40;;;;;;;18.95;54.39;101921.69;5058030;28;20035;-76
2022/06/04 10:43:15;;;;;;;8.77;6.18;;;;;;;18.94;54.83;101913.78;5023004;28;20033;-76
2022/06/04 10:45:54;;;;;;;11.00;6.72;;;;;;;18.99;54.74;101905.69;5055276;28;20500;-76
2022/06/04 10:48:27;;;;;;;8.75;6.75;;;;;;;19.08;54.65;101905.31;5056341;28;20047;-76
2022/06/04 10:54:11;;;;;;;7.55;6.00;;;;;;;19.22;54.55;101913.44;5054496;28;20040;-76
2022/06/04 10:57:07;;;;;;;10.65;6.85;;;;;;;19.26;54.13;101914.16;5030886;28;20040;-76
2022/06/04 10:59:59;;;;;;;10.52;6.75;;;;;;;19.33;53.38;101922.66;5054931;28;20111;-76
2022/06/04 11:02:41;;;;;;;11.95;7.10;;;;;;;19.37;53.05;101921.59;5036366;28;20040;-76
2022/06/04 11:05:12;;;;;;;;;;;;;;;19.46;53.65;101917.66;5053088;28;20028;-76
2022/06/04 11:07:53;;;;;;;10.82;6.55;;;;;;;19.49;52.89;101920.19;5047836;28;19917;-75
2022/06/04 11:10:40;;;;;;;11.80;6.22;;;;;;;19.53;53.25;101927.03;5048381;28;20044;-77
2022/06/04 11:13:27;;;;;;;8.55;6.07;;;;;;;19.63;53.50;101927.47;5047257;28;20882;-77
2022/06/04 11:16:04;;;;;;;10.75;6.50;;;;;;;19.70;52.27;101923.59;5054730;28;20057;-77
2022/06/04 11:18:36;;;;;;;8.63;6.70;;;;;;;19.76;52.36;101927.72;5049047;28;20032;-77
2022/06/04 11:21:15;;;;;;;7.63;6.05;;;;;;;19.84;52.69;101929.06;5051204;28;20490;-77
2022/06/04 11:23:58;;;;;;;8.93;6.13;;;;;;;19.91;52.73;101934.09;5056482;28;20029;-77
2022/06/04 11:26:31;;;;;;;7.68;6.15;;;;;;;19.92;52.31;101923.44;5055303;28;20040;-75
2022/06/04 11:28:56;;;;;;;8.52;6.22;;;;;;;19.94;51.75;101926.03;5055098;28;20070;-78
2022/06/04 11:31:28;;;;;;;8.82;6.40;;;;;;;19.96;51.21;101932.94;5054260;28;20036;-75
2022/06/04 11:34:12;;;;;;;8.15;6.28;;;;;;;20.01;51.58;101927.44;5060130;28;20029;-74
2022/06/04 11:36:55;;;;;;;7.57;5.90;;;;;;;20.06;52.15;101930.72;5058186;28;20115;-75
2022/06/04 11:39:39;;;;;;;8.38;5.93;;;;;;;20.09;51.40;101920.00;5061091;28;20464;-75
2022/06/04 11:42:29;;;;;;;8.02;5.82;;;;;;;20.15;51.55;101914.41;5054391;28;20202;-75
2022/06/04 11:45:32;;;;;;;7.95;5.78;;;;;;;20.18;51.26;101918.69;5055470;28;20039;-74
2022/06/04 11:48:45;;;;;;;8.18;5.93;;;;;;;20.24;51.39;101920.19;5052895;28;20115;-74
2022/06/04 11:51:38;;;;;;;8.93;6.00;;;;;;;20.37;51.40;101915.97;5024780;28;20049;-74
2022/06/04 11:54:29;;;;;;;7.47;5.68;;;;;;;20.50;51.24;101912.72;5052707;28;20416;-75
2022/06/04 11:57:01;;;;;;;6.70;5.63;;;;;;;20.59;50.57;101904.31;5061129;28;20036;-74
2022/06/04 12:00:04;;;;;;;9.27;5.85;;;;;;;20.71;51.14;101910.78;5062502;28;20025;-74